Información del aeropuerto LIPZ

Información de pista
Pista 04L Longitud 9121 ft Anchura 148 ft
Elevación 7 ft Umbral 308 ft Rumbo 42
Pista 22R Longitud 9121 ft Anchura 148 ft
Elevación 7 ft Umbral 0 ft Rumbo 222
Pista 04R Longitud 10827 ft Anchura 148 ft
Elevación 7 ft Umbral 0 ft Rumbo 42
Pista 22L Longitud 10827 ft Anchura 148 ft
Elevación 7 ft Umbral 0 ft Rumbo 222
Frecuencias del aeropuerto
Tipo APP Nombre APP Frecuencia 118.9 MHZ
Tipo ATIS Nombre ATIS Frecuencia 122.225 MHZ
Tipo GND Nombre GND Frecuencia 121.7 MHZ
Tipo TWR Nombre TWR Frecuencia 120.2 MHZ
Radioayudas del aeropuerto
Tipo VOR-DME Nombre Tessera Frecuencia 115300 KHZ
Tipo NDB Nombre Venezia Frecuencia 379 KHZ
Información meteorológica del aeropuerto y NOTAM
ADDS - METARS form results

(2326 UTC 08 May 2021)
Data provider http://aviationweather.gov/metar/data/
 
METAR text: LIPZ 082320Z 33005KT CAVOK 12/06 Q1020 NOSIG
Conditions at: LIPZ (VENEZIA/TESSERA , IT) observed 2320 UTC 08 May 2021
Temperature: 12.0°C (54°F)
Dewpoint: 6.0°C (43°F) [RH = 67%]
Pressure (altimeter): 30.12 inches Hg (1020.0 mb)
Winds: from the NNW (330 degrees) at 6 MPH (5 knots; 2.6 m/s)
Visibility: 6 or more miles (10+ km)
Ceiling: ceiling and visibility are OK
Clouds: unknown
Weather: no significant weather observed at this time

METAR text: LIPZ 082250Z 35004KT CAVOK 12/06 Q1021 NOSIG
Conditions at: LIPZ (VENEZIA/TESSERA , IT) observed 2250 UTC 08 May 2021
Temperature: 12.0°C (54°F)
Dewpoint: 6.0°C (43°F) [RH = 67%]
Pressure (altimeter): 30.15 inches Hg (1021.0 mb)
Winds: from the N (350 degrees) at 5 MPH (4 knots; 2.1 m/s)
Visibility: 6 or more miles (10+ km)
Ceiling: ceiling and visibility are OK
Clouds: unknown
Weather: no significant weather observed at this time

Forecast for: LIPZ (VENEZIA/TESSERA , IT)
Text: TAF LIPZ 082300Z 0900/1006 VRB05KT CAVOK
Forecast period: 0000 to 1000 UTC 09 May 2021
Forecast type: FROM: standard forecast or significant change
Winds: variable direction winds at 6 MPH (5 knots; 2.6 m/s)
Visibility: 6 or more miles (10+ km)
Ceiling: unknown
Clouds: missing
Weather: NSW  (no significant weather)
Text: BECMG 0910/0912 16010KT
Forecast period: 1000 UTC 09 May 2021 to 0600 UTC 10 May 2021
Forecast type: BECOMING: Conditions expected to become as follows by 1200 UTC 09 May 2021
Winds: from the SSE (160 degrees) at 12 MPH (10 knots; 5.1 m/s)
Visibility: 6 or more miles (10+ km)
Ceiling: unknown
Clouds: missing
Weather: NSW  (no significant weather)